sensor_id;sensor_type;location;lat;lon;timestamp;pressure;altitude;pressure_sealevel;temperature;humidity
76605;BME280;73179;50.978;16.998;2024-01-27T00:01:51;100628.03;;;2.79;78.42
76605;BME280;73179;50.978;16.998;2024-01-27T00:04:17;100713.56;;;3.22;78.37
76605;BME280;73179;50.978;16.998;2024-01-27T00:06:43;100633.81;;;2.58;79.12
76605;BME280;73179;50.978;16.998;2024-01-27T00:09:09;100657.72;;;2.71;79.47
76605;BME280;73179;50.978;16.998;2024-01-27T00:11:35;100793.50;;;3.55;79.55
76605;BME280;73179;50.978;16.998;2024-01-27T00:14:02;100773.97;;;3.30;79.84
76605;BME280;73179;50.978;16.998;2024-01-27T00:16:28;100841.59;;;3.80;79.75
76605;BME280;73179;50.978;16.998;2024-01-27T00:18:55;100853.34;;;3.97;80.07
76605;BME280;73179;50.978;16.998;2024-01-27T00:21:20;100578.91;;;2.19;79.99
76605;BME280;73179;50.978;16.998;2024-01-27T00:23:47;100889.81;;;4.16;79.58
76605;BME280;73179;50.978;16.998;2024-01-27T00:26:13;100701.94;;;2.92;79.05
76605;BME280;73179;50.978;16.998;2024-01-27T00:28:39;100831.91;;;3.79;78.97
76605;BME280;73179;50.978;16.998;2024-01-27T00:31:05;100855.97;;;3.86;79.12
76605;BME280;73179;50.978;16.998;2024-01-27T00:33:31;100862.56;;;4.01;78.33
76605;BME280;73179;50.978;16.998;2024-01-27T00:35:57;100882.53;;;4.05;77.89
76605;BME280;73179;50.978;16.998;2024-01-27T00:38:23;100864.38;;;3.89;77.54
76605;BME280;73179;50.978;16.998;2024-01-27T00:40:49;100821.28;;;3.54;77.23
76605;BME280;73179;50.978;16.998;2024-01-27T00:43:15;100824.81;;;3.48;78.07
76605;BME280;73179;50.978;16.998;2024-01-27T00:45:41;100869.56;;;3.84;77.06
76605;BME280;73179;50.978;16.998;2024-01-27T00:48:07;100886.66;;;3.83;76.69
76605;BME280;73179;50.978;16.998;2024-01-27T00:50:33;100869.25;;;3.74;76.96
76605;BME280;73179;50.978;16.998;2024-01-27T00:52:59;100788.75;;;3.32;76.88
76605;BME280;73179;50.978;16.998;2024-01-27T00:55:25;100915.41;;;4.12;77.75
76605;BME280;73179;50.978;16.998;2024-01-27T00:57:51;100824.69;;;3.43;77.47
76605;BME280;73179;50.978;16.998;2024-01-27T01:00:19;100873.13;;;3.78;76.87
76605;BME280;73179;50.978;16.998;2024-01-27T01:02:45;100883.97;;;3.83;77.29
76605;BME280;73179;50.978;16.998;2024-01-27T01:05:13;100831.63;;;3.51;76.04
76605;BME280;73179;50.978;16.998;2024-01-27T01:07:39;100870.47;;;3.78;76.30
76605;BME280;73179;50.978;16.998;2024-01-27T01:10:06;100872.91;;;3.79;76.41
76605;BME280;73179;50.978;16.998;2024-01-27T01:12:32;100880.88;;;3.86;76.03
76605;BME280;73179;50.978;16.998;2024-01-27T01:14:58;100890.25;;;3.95;75.54
76605;BME280;73179;50.978;16.998;2024-01-27T01:17:24;100911.38;;;4.03;75.66
76605;BME280;73179;50.978;16.998;2024-01-27T01:19:50;100924.25;;;4.13;75.39
76605;BME280;73179;50.978;16.998;2024-01-27T01:22:16;100923.28;;;4.07;75.39
76605;BME280;73179;50.978;16.998;2024-01-27T01:24:42;100847.53;;;3.64;75.65
76605;BME280;73179;50.978;16.998;2024-01-27T01:27:09;100886.66;;;3.83;75.79
76605;BME280;73179;50.978;16.998;2024-01-27T01:29:34;100890.59;;;3.80;75.49
76605;BME280;73179;50.978;16.998;2024-01-27T01:32:01;100870.09;;;3.74;74.99
76605;BME280;73179;50.978;16.998;2024-01-27T01:34:30;100835.16;;;3.45;74.78
76605;BME280;73179;50.978;16.998;2024-01-27T01:36:56;100928.34;;;3.97;75.55
76605;BME280;73179;50.978;16.998;2024-01-27T01:39:23;100747.75;;;2.77;75.10
76605;BME280;73179;50.978;16.998;2024-01-27T01:41:49;100769.16;;;2.96;75.69
76605;BME280;73179;50.978;16.998;2024-01-27T01:44:15;100762.91;;;2.83;75.86
76605;BME280;73179;50.978;16.998;2024-01-27T01:46:42;100907.16;;;3.71;75.95
76605;BME280;73179;50.978;16.998;2024-01-27T01:49:08;100829.34;;;3.29;75.38
76605;BME280;73179;50.978;16.998;2024-01-27T01:51:34;100926.78;;;3.90;75.27
76605;BME280;73179;50.978;16.998;2024-01-27T01:54:00;100899.22;;;3.64;75.57
76605;BME280;73179;50.978;16.998;2024-01-27T01:56:27;100871.88;;;3.38;75.45
76605;BME280;73179;50.978;16.998;2024-01-27T01:58:54;100869.38;;;3.43;75.63
76605;BME280;73179;50.978;16.998;2024-01-27T02:01:20;100833.50;;;3.25;75.13
76605;BME280;73179;50.978;16.998;2024-01-27T02:03:53;100860.34;;;3.37;75.28
76605;BME280;73179;50.978;16.998;2024-01-27T02:06:20;100751.13;;;2.66;75.50
76605;BME280;73179;50.978;16.998;2024-01-27T02:08:46;100900.97;;;3.52;75.88
76605;BME280;73179;50.978;16.998;2024-01-27T02:11:12;100700.59;;;2.33;75.19
76605;BME280;73179;50.978;16.998;2024-01-27T02:13:38;100632.97;;;1.83;75.73
76605;BME280;73179;50.978;16.998;2024-01-27T02:16:05;100874.06;;;3.47;75.64
76605;BME280;73179;50.978;16.998;2024-01-27T02:18:31;100924.88;;;3.72;75.68
76605;BME280;73179;50.978;16.998;2024-01-27T02:20:57;100885.88;;;3.40;75.34
76605;BME280;73179;50.978;16.998;2024-01-27T02:23:24;100812.59;;;2.91;75.39
76605;BME280;73179;50.978;16.998;2024-01-27T02:25:50;100779.09;;;2.64;75.31
76605;BME280;73179;50.978;16.998;2024-01-27T02:28:16;100937.88;;;3.68;75.54
76605;BME280;73179;50.978;16.998;2024-01-27T02:30:43;100941.97;;;3.71;75.20
76605;BME280;73179;50.978;16.998;2024-01-27T02:33:09;100721.25;;;2.20;74.85
76605;BME280;73179;50.978;16.998;2024-01-27T02:35:36;100888.03;;;3.24;74.88
76605;BME280;73179;50.978;16.998;2024-01-27T02:38:02;100799.00;;;2.68;74.98
76605;BME280;73179;50.978;16.998;2024-01-27T02:40:28;100884.59;;;3.17;75.05
76605;BME280;73179;50.978;16.998;2024-01-27T02:42:54;100912.00;;;3.38;75.24
76605;BME280;73179;50.978;16.998;2024-01-27T02:45:20;100911.72;;;3.46;74.43
76605;BME280;73179;50.978;16.998;2024-01-27T02:47:46;100619.16;;;1.62;74.26
76605;BME280;73179;50.978;16.998;2024-01-27T02:50:13;100941.88;;;3.59;74.50
76605;BME280;73179;50.978;16.998;2024-01-27T02:52:39;100910.47;;;3.23;74.52
76605;BME280;73179;50.978;16.998;2024-01-27T02:55:05;100901.03;;;3.21;73.73
76605;BME280;73179;50.978;16.998;2024-01-27T02:57:31;100960.59;;;3.59;74.11
76605;BME280;73179;50.978;16.998;2024-01-27T02:59:58;100797.84;;;2.57;73.65
76605;BME280;73179;50.978;16.998;2024-01-27T03:02:23;100920.53;;;3.28;73.84
76605;BME280;73179;50.978;16.998;2024-01-27T03:04:50;100923.88;;;3.23;73.77
76605;BME280;73179;50.978;16.998;2024-01-27T03:07:16;100956.72;;;3.30;73.81
76605;BME280;73179;50.978;16.998;2024-01-27T03:09:42;100852.06;;;2.64;73.64
76605;BME280;73179;50.978;16.998;2024-01-27T03:12:08;100713.25;;;1.82;73.66
76605;BME280;73179;50.978;16.998;2024-01-27T03:14:35;100791.69;;;2.25;73.61
76605;BME280;73179;50.978;16.998;2024-01-27T03:17:00;100980.56;;;3.39;73.76
76605;BME280;73179;50.978;16.998;2024-01-27T03:19:27;100785.81;;;2.10;73.90
76605;BME280;73179;50.978;16.998;2024-01-27T03:21:53;100697.06;;;1.77;73.02
76605;BME280;73179;50.978;16.998;2024-01-27T03:24:19;101011.63;;;3.64;72.96
76605;BME280;73179;50.978;16.998;2024-01-27T03:26:45;100964.69;;;3.37;72.81
76605;BME280;73179;50.978;16.998;2024-01-27T03:29:11;100983.81;;;3.41;72.63
76605;BME280;73179;50.978;16.998;2024-01-27T03:31:37;100761.00;;;2.03;72.01
76605;BME280;73179;50.978;16.998;2024-01-27T03:34:03;100756.03;;;2.07;73.26
76605;BME280;73179;50.978;16.998;2024-01-27T03:36:29;100695.47;;;1.69;72.58
76605;BME280;73179;50.978;16.998;2024-01-27T03:38:58;100983.09;;;3.52;72.92
76605;BME280;73179;50.978;16.998;2024-01-27T03:41:24;100982.03;;;3.34;73.49
76605;BME280;73179;50.978;16.998;2024-01-27T03:43:50;100994.50;;;3.47;73.66
76605;BME280;73179;50.978;16.998;2024-01-27T03:46:16;100850.19;;;2.33;74.34
76605;BME280;73179;50.978;16.998;2024-01-27T03:48:43;100950.25;;;3.13;72.70
76605;BME280;73179;50.978;16.998;2024-01-27T03:51:08;100927.53;;;2.98;73.10
76605;BME280;73179;50.978;16.998;2024-01-27T03:53:36;100972.41;;;3.27;73.45
76605;BME280;73179;50.978;16.998;2024-01-27T03:56:02;100865.47;;;2.58;72.72
76605;BME280;73179;50.978;16.998;2024-01-27T03:58:30;101019.94;;;3.56;72.02
76605;BME280;73179;50.978;16.998;2024-01-27T04:00:57;100799.53;;;2.14;72.78
76605;BME280;73179;50.978;16.998;2024-01-27T04:03:24;100857.53;;;2.45;72.93
76605;BME280;73179;50.978;16.998;2024-01-27T04:05:50;100933.59;;;2.80;72.78
76605;BME280;73179;50.978;16.998;2024-01-27T04:08:16;100705.81;;;1.53;72.91
76605;BME280;73179;50.978;16.998;2024-01-27T04:10:42;100971.75;;;3.00;72.79
76605;BME280;73179;50.978;16.998;2024-01-27T04:13:08;100885.84;;;2.59;73.62
76605;BME280;73179;50.978;16.998;2024-01-27T04:15:34;100946.09;;;2.86;73.50
76605;BME280;73179;50.978;16.998;2024-01-27T04:18:05;100981.81;;;2.98;73.58
76605;BME280;73179;50.978;16.998;2024-01-27T04:20:34;100935.44;;;2.79;73.59
76605;BME280;73179;50.978;16.998;2024-01-27T04:23:01;100884.44;;;2.50;74.27
76605;BME280;73179;50.978;16.998;2024-01-27T04:25:27;100936.91;;;2.75;73.25
76605;BME280;73179;50.978;16.998;2024-01-27T04:27:53;101035.03;;;3.44;73.69
76605;BME280;73179;50.978;16.998;2024-01-27T04:30:19;101052.09;;;3.50;73.31
76605;BME280;73179;50.978;16.998;2024-01-27T04:32:46;100976.97;;;2.88;73.63
76605;BME280;73179;50.978;16.998;2024-01-27T04:35:14;100712.06;;;1.20;73.59
76605;BME280;73179;50.978;16.998;2024-01-27T04:37:41;100819.78;;;1.97;73.77
76605;BME280;73179;50.978;16.998;2024-01-27T04:40:07;100785.81;;;1.59;73.90
76605;BME280;73179;50.978;16.998;2024-01-27T04:42:34;101002.81;;;3.01;73.31
76605;BME280;73179;50.978;16.998;2024-01-27T04:45:01;101025.97;;;3.14;73.88
76605;BME280;73179;50.978;16.998;2024-01-27T04:47:27;100987.41;;;2.90;73.38
76605;BME280;73179;50.978;16.998;2024-01-27T04:49:53;100988.88;;;2.93;72.90
76605;BME280;73179;50.978;16.998;2024-01-27T04:52:20;101038.91;;;3.23;73.17
76605;BME280;73179;50.978;16.998;2024-01-27T04:54:46;101033.03;;;3.02;73.73
76605;BME280;73179;50.978;16.998;2024-01-27T04:57:13;101020.91;;;2.99;73.30
76605;BME280;73179;50.978;16.998;2024-01-27T04:59:38;101027.47;;;3.03;73.32
76605;BME280;73179;50.978;16.998;2024-01-27T05:02:05;100803.25;;;1.55;73.42
76605;BME280;73179;50.978;16.998;2024-01-27T05:04:31;100965.72;;;2.67;73.07
76605;BME280;73179;50.978;16.998;2024-01-27T05:06:57;100725.22;;;1.15;72.59
76605;BME280;73179;50.978;16.998;2024-01-27T05:09:23;100935.00;;;2.45;72.93
76605;BME280;73179;50.978;16.998;2024-01-27T05:11:49;100936.06;;;2.37;72.50
76605;BME280;73179;50.978;16.998;2024-01-27T05:14:18;100898.97;;;2.09;73.42
76605;BME280;73179;50.978;16.998;2024-01-27T05:16:44;100871.28;;;2.04;72.55
76605;BME280;73179;50.978;16.998;2024-01-27T05:19:10;101041.59;;;3.17;72.53
76605;BME280;73179;50.978;16.998;2024-01-27T05:21:37;100820.44;;;1.79;71.96
76605;BME280;73179;50.978;16.998;2024-01-27T05:24:04;101001.22;;;2.87;72.24
76605;BME280;73179;50.978;16.998;2024-01-27T05:26:30;101068.56;;;3.15;72.60
76605;BME280;73179;50.978;16.998;2024-01-27T05:28:56;100819.06;;;1.57;72.09
76605;BME280;73179;50.978;16.998;2024-01-27T05:31:25;100816.22;;;1.45;72.07
76605;BME280;73179;50.978;16.998;2024-01-27T05:33:51;101049.53;;;2.92;73.08
76605;BME280;73179;50.978;16.998;2024-01-27T05:36:17;100897.59;;;1.93;72.70
76605;BME280;73179;50.978;16.998;2024-01-27T05:38:43;100950.28;;;2.24;73.12
76605;BME280;73179;50.978;16.998;2024-01-27T05:41:09;100966.25;;;2.44;72.18
76605;BME280;73179;50.978;16.998;2024-01-27T05:43:35;100961.78;;;2.31;72.60
76605;BME280;73179;50.978;16.998;2024-01-27T05:46:02;100752.69;;;1.09;72.21
76605;BME280;73179;50.978;16.998;2024-01-27T05:48:28;100718.50;;;0.67;73.59
76605;BME280;73179;50.978;16.998;2024-01-27T05:50:55;100849.88;;;1.39;72.78
76605;BME280;73179;50.978;16.998;2024-01-27T05:53:22;101090.44;;;2.99;73.13
76605;BME280;73179;50.978;16.998;2024-01-27T05:55:48;100877.34;;;1.60;72.89
76605;BME280;73179;50.978;16.998;2024-01-27T05:58:14;101103.44;;;2.89;73.91
76605;BME280;73179;50.978;16.998;2024-01-27T06:00:42;101056.59;;;2.67;72.80
76605;BME280;73179;50.978;16.998;2024-01-27T06:03:10;100906.47;;;1.68;72.82
76605;BME280;73179;50.978;16.998;2024-01-27T06:05:36;100709.72;;;0.53;72.65
76605;BME280;73179;50.978;16.998;2024-01-27T06:08:04;101077.31;;;2.91;72.31
76605;BME280;73179;50.978;16.998;2024-01-27T06:10:31;101093.78;;;2.88;72.94
76605;BME280;73179;50.978;16.998;2024-01-27T06:12:57;100861.16;;;1.41;72.70
76605;BME280;73179;50.978;16.998;2024-01-27T06:15:23;101078.59;;;2.75;72.49
76605;BME280;73179;50.978;16.998;2024-01-27T06:17:49;101071.44;;;2.63;72.51
76605;BME280;73179;50.978;16.998;2024-01-27T06:20:16;100970.28;;;1.96;73.34
76605;BME280;73179;50.978;16.998;2024-01-27T06:22:44;100769.31;;;0.59;73.25
76605;BME280;73179;50.978;16.998;2024-01-27T06:25:10;101073.91;;;2.51;73.26
76605;BME280;73179;50.978;16.998;2024-01-27T06:27:37;100773.00;;;0.44;73.58
76605;BME280;73179;50.978;16.998;2024-01-27T06:30:08;100948.78;;;1.44;73.13
76605;BME280;73179;50.978;16.998;2024-01-27T06:32:35;100996.78;;;1.90;73.38
76605;BME280;73179;50.978;16.998;2024-01-27T06:35:02;101031.91;;;2.01;73.67
76605;BME280;73179;50.978;16.998;2024-01-27T06:37:28;101052.44;;;2.20;74.01
76605;BME280;73179;50.978;16.998;2024-01-27T06:39:55;100917.38;;;1.40;73.68
76605;BME280;73179;50.978;16.998;2024-01-27T06:42:21;101164.31;;;2.87;73.99
76605;BME280;73179;50.978;16.998;2024-01-27T06:44:47;100978.72;;;1.66;73.50
76605;BME280;73179;50.978;16.998;2024-01-27T06:47:13;101179.53;;;2.93;73.71
76605;BME280;73179;50.978;16.998;2024-01-27T06:49:40;101152.41;;;2.76;74.14
76605;BME280;73179;50.978;16.998;2024-01-27T06:52:06;100994.31;;;1.76;73.37
76605;BME280;73179;50.978;16.998;2024-01-27T06:54:32;101178.50;;;3.01;73.84
76605;BME280;73179;50.978;16.998;2024-01-27T06:56:59;100994.53;;;1.81;73.84
76605;BME280;73179;50.978;16.998;2024-01-27T06:59:26;101136.81;;;2.73;74.15
76605;BME280;73179;50.978;16.998;2024-01-27T07:01:52;101115.81;;;2.70;73.96
76605;BME280;73179;50.978;16.998;2024-01-27T07:04:19;100793.13;;;0.80;72.97
76605;BME280;73179;50.978;16.998;2024-01-27T07:06:45;100894.63;;;1.51;73.39
76605;BME280;73179;50.978;16.998;2024-01-27T07:09:11;100959.59;;;1.96;73.65
76605;BME280;73179;50.978;16.998;2024-01-27T07:11:37;100765.44;;;0.68;73.78
76605;BME280;73179;50.978;16.998;2024-01-27T07:14:04;100770.56;;;0.76;73.60
76605;BME280;73179;50.978;16.998;2024-01-27T07:16:32;100809.09;;;0.93;73.33
76605;BME280;73179;50.978;16.998;2024-01-27T07:18:59;101017.84;;;2.38;73.21
76605;BME280;73179;50.978;16.998;2024-01-27T07:21:26;100811.97;;;1.11;73.00
76605;BME280;73179;50.978;16.998;2024-01-27T07:23:55;101005.72;;;2.42;72.84
76605;BME280;73179;50.978;16.998;2024-01-27T07:26:21;101134.41;;;3.16;72.97
76605;BME280;73179;50.978;16.998;2024-01-27T07:28:47;101068.75;;;2.69;73.40
76605;BME280;73179;50.978;16.998;2024-01-27T07:31:16;100747.41;;;0.83;72.63
76605;BME280;73179;50.978;16.998;2024-01-27T07:33:43;100982.97;;;2.13;73.21
76605;BME280;73179;50.978;16.998;2024-01-27T07:36:09;100991.16;;;2.25;73.34
76605;BME280;73179;50.978;16.998;2024-01-27T07:38:37;100805.41;;;1.01;73.49
76605;BME280;73179;50.978;16.998;2024-01-27T07:41:03;101027.31;;;2.34;73.30
76605;BME280;73179;50.978;16.998;2024-01-27T07:43:30;101180.47;;;3.31;73.47
76605;BME280;73179;50.978;16.998;2024-01-27T07:45:57;100802.34;;;1.04;74.09
76605;BME280;73179;50.978;16.998;2024-01-27T07:48:23;101118.59;;;3.08;73.77
76605;BME280;73179;50.978;16.998;2024-01-27T07:50:49;101157.19;;;3.32;73.00
76605;BME280;73179;50.978;16.998;2024-01-27T07:53:16;101100.94;;;2.94;73.21
76605;BME280;73179;50.978;16.998;2024-01-27T07:55:42;101022.19;;;2.32;72.87
76605;BME280;73179;50.978;16.998;2024-01-27T07:58:09;101110.22;;;2.92;73.46
76605;BME280;73179;50.978;16.998;2024-01-27T08:00:35;101152.72;;;3.19;73.63
76605;BME280;73179;50.978;16.998;2024-01-27T08:03:02;101137.50;;;3.13;73.36
76605;BME280;73179;50.978;16.998;2024-01-27T08:05:29;101028.53;;;2.38;73.97
76605;BME280;73179;50.978;16.998;2024-01-27T08:07:55;101131.75;;;3.10;73.54
76605;BME280;73179;50.978;16.998;2024-01-27T08:10:22;101013.13;;;2.33;73.79
76605;BME280;73179;50.978;16.998;2024-01-27T08:12:48;100930.47;;;1.87;73.72
76605;BME280;73179;50.978;16.998;2024-01-27T08:15:14;100877.16;;;1.48;73.83
76605;BME280;73179;50.978;16.998;2024-01-27T08:17:40;100802.13;;;1.18;74.07
76605;BME280;73179;50.978;16.998;2024-01-27T08:20:07;100925.72;;;1.89;74.19
76605;BME280;73179;50.978;16.998;2024-01-27T08:22:34;100935.78;;;1.94;73.44
76605;BME280;73179;50.978;16.998;2024-01-27T08:25:00;101035.84;;;2.69;73.66
76605;BME280;73179;50.978;16.998;2024-01-27T08:27:27;101138.72;;;3.24;73.95
76605;BME280;73179;50.978;16.998;2024-01-27T08:29:53;101148.78;;;3.22;74.39
76605;BME280;73179;50.978;16.998;2024-01-27T08:32:19;101181.00;;;3.47;73.52
76605;BME280;73179;50.978;16.998;2024-01-27T08:34:45;100952.59;;;2.08;72.72
76605;BME280;73179;50.978;16.998;2024-01-27T08:37:17;100841.88;;;1.46;71.85
76605;BME280;73179;50.978;16.998;2024-01-27T08:39:43;101215.69;;;3.73;73.02
76605;BME280;73179;50.978;16.998;2024-01-27T08:42:10;101035.22;;;2.73;73.14
76605;BME280;73179;50.978;16.998;2024-01-27T08:44:39;101095.41;;;2.96;73.44
76605;BME280;73179;50.978;16.998;2024-01-27T08:47:06;101147.75;;;3.23;73.24
76605;BME280;73179;50.978;16.998;2024-01-27T08:49:32;101163.38;;;3.26;73.08
76605;BME280;73179;50.978;16.998;2024-01-27T08:51:58;100860.34;;;1.54;72.30
76605;BME280;73179;50.978;16.998;2024-01-27T08:54:24;101087.63;;;2.81;72.70
76605;BME280;73179;50.978;16.998;2024-01-27T08:56:51;101204.28;;;3.46;72.63
76605;BME280;73179;50.978;16.998;2024-01-27T08:59:18;101214.13;;;3.52;73.16
76605;BME280;73179;50.978;16.998;2024-01-27T09:01:45;100953.63;;;2.07;72.87
76605;BME280;73179;50.978;16.998;2024-01-27T09:04:11;101052.16;;;2.54;72.54
76605;BME280;73179;50.978;16.998;2024-01-27T09:06:37;101236.69;;;3.76;72.87
76605;BME280;73179;50.978;16.998;2024-01-27T09:09:04;101180.16;;;3.53;72.31
76605;BME280;73179;50.978;16.998;2024-01-27T09:11:30;100965.97;;;2.08;72.41
76605;BME280;73179;50.978;16.998;2024-01-27T09:13:57;101251.44;;;3.92;71.79
76605;BME280;73179;50.978;16.998;2024-01-27T09:16:24;101269.13;;;3.99;72.13
76605;BME280;73179;50.978;16.998;2024-01-27T09:18:50;101052.94;;;2.61;72.42
76605;BME280;73179;50.978;16.998;2024-01-27T09:21:16;101049.66;;;2.53;71.90
76605;BME280;73179;50.978;16.998;2024-01-27T09:23:46;101207.44;;;3.74;72.47
76605;BME280;73179;50.978;16.998;2024-01-27T09:26:16;101036.88;;;2.68;72.13
76605;BME280;73179;50.978;16.998;2024-01-27T09:28:44;101031.59;;;2.55;72.37
76605;BME280;73179;50.978;16.998;2024-01-27T09:31:11;101211.59;;;3.64;72.59
76605;BME280;73179;50.978;16.998;2024-01-27T09:33:38;101226.84;;;3.63;72.12
76605;BME280;73179;50.978;16.998;2024-01-27T09:36:04;101243.06;;;3.81;72.03
76605;BME280;73179;50.978;16.998;2024-01-27T09:38:31;101189.03;;;3.47;71.92
76605;BME280;73179;50.978;16.998;2024-01-27T09:40:58;101242.66;;;3.78;72.17
76605;BME280;73179;50.978;16.998;2024-01-27T09:43:25;100933.97;;;1.88;71.65
76605;BME280;73179;50.978;16.998;2024-01-27T09:45:54;101252.09;;;3.80;72.40
76605;BME280;73179;50.978;16.998;2024-01-27T09:48:20;101180.22;;;3.40;71.72
76605;BME280;73179;50.978;16.998;2024-01-27T09:50:48;101143.25;;;3.17;71.87
76605;BME280;73179;50.978;16.998;2024-01-27T09:53:15;101207.47;;;3.68;71.57
76605;BME280;73179;50.978;16.998;2024-01-27T09:55:43;101199.56;;;3.42;73.06
76605;BME280;73179;50.978;16.998;2024-01-27T09:58:11;101223.09;;;3.71;72.64
76605;BME280;73179;50.978;16.998;2024-01-27T10:00:37;101159.28;;;3.23;71.87
76605;BME280;73179;50.978;16.998;2024-01-27T10:03:04;101271.22;;;3.91;72.27
76605;BME280;73179;50.978;16.998;2024-01-27T10:05:32;101078.56;;;2.82;71.64
76605;BME280;73179;50.978;16.998;2024-01-27T10:07:58;101152.47;;;3.27;71.11
76605;BME280;73179;50.978;16.998;2024-01-27T10:10:25;101105.03;;;3.03;71.58
76605;BME280;73179;50.978;16.998;2024-01-27T10:12:53;101208.31;;;3.62;72.11
76605;BME280;73179;50.978;16.998;2024-01-27T10:15:22;101307.69;;;4.29;71.92
76605;BME280;73179;50.978;16.998;2024-01-27T10:17:51;101251.63;;;3.97;72.22
76605;BME280;73179;50.978;16.998;2024-01-27T10:20:28;100949.94;;;2.08;71.99
76605;BME280;73179;50.978;16.998;2024-01-27T10:22:56;101316.38;;;4.31;71.91
76605;BME280;73179;50.978;16.998;2024-01-27T10:25:31;101010.47;;;2.33;71.49
76605;BME280;73179;50.978;16.998;2024-01-27T10:28:09;101191.13;;;3.38;72.43
76605;BME280;73179;50.978;16.998;2024-01-27T10:30:36;101212.66;;;3.63;71.96
76605;BME280;73179;50.978;16.998;2024-01-27T10:33:03;101103.63;;;2.94;72.00
76605;BME280;73179;50.978;16.998;2024-01-27T10:35:32;101211.91;;;3.87;71.30
76605;BME280;73179;50.978;16.998;2024-01-27T10:38:07;101085.09;;;2.99;70.48
76605;BME280;73179;50.978;16.998;2024-01-27T10:40:35;101344.44;;;4.60;71.56
76605;BME280;73179;50.978;16.998;2024-01-27T10:43:07;101161.41;;;3.53;71.68
76605;BME280;73179;50.978;16.998;2024-01-27T10:45:40;101172.22;;;3.71;71.27
76605;BME280;73179;50.978;16.998;2024-01-27T10:48:08;101143.06;;;3.63;71.56
76605;BME280;73179;50.978;16.998;2024-01-27T10:50:42;101179.38;;;3.83;71.36
76605;BME280;73179;50.978;16.998;2024-01-27T10:53:22;101334.88;;;4.71;71.26
76605;BME280;73179;50.978;16.998;2024-01-27T10:55:54;101124.88;;;3.33;71.02
76605;BME280;73179;50.978;16.998;2024-01-27T10:58:24;101183.41;;;3.99;71.28
76605;BME280;73179;50.978;16.998;2024-01-27T11:00:56;101230.81;;;4.30;71.26
76605;BME280;73179;50.978;16.998;2024-01-27T11:03:22;101301.06;;;4.70;71.33
76605;BME280;73179;50.978;16.998;2024-01-27T11:05:51;101298.13;;;4.71;71.32
76605;BME280;73179;50.978;16.998;2024-01-27T11:08:18;101075.47;;;3.29;71.07
76605;BME280;73179;50.978;16.998;2024-01-27T11:10:45;101071.78;;;3.30;71.44
76605;BME280;73179;50.978;16.998;2024-01-27T11:13:12;101268.44;;;4.42;70.95
76605;BME280;73179;50.978;16.998;2024-01-27T11:15:38;101186.59;;;4.14;70.75
76605;BME280;73179;50.978;16.998;2024-01-27T11:18:04;101194.81;;;4.19;71.58
76605;BME280;73179;50.978;16.998;2024-01-27T11:20:31;101205.47;;;4.26;69.72
76605;BME280;73179;50.978;16.998;2024-01-27T11:23:09;101218.16;;;4.44;70.90
76605;BME280;73179;50.978;16.998;2024-01-27T11:25:35;101300.41;;;4.99;70.60
76605;BME280;73179;50.978;16.998;2024-01-27T11:28:14;101311.31;;;5.04;70.62
76605;BME280;73179;50.978;16.998;2024-01-27T11:30:46;101193.66;;;4.09;70.12
76605;BME280;73179;50.978;16.998;2024-01-27T11:33:12;101338.53;;;5.08;69.88
76605;BME280;73179;50.978;16.998;2024-01-27T11:35:39;101304.06;;;4.80;70.17
76605;BME280;73179;50.978;16.998;2024-01-27T11:38:05;101347.72;;;5.18;70.26
76605;BME280;73179;50.978;16.998;2024-01-27T11:40:33;101355.31;;;5.21;69.45
76605;BME280;73179;50.978;16.998;2024-01-27T11:43:13;101331.50;;;5.07;68.95
76605;BME280;73179;50.978;16.998;2024-01-27T11:46:00;101358.78;;;5.28;68.97
76605;BME280;73179;50.978;16.998;2024-01-27T11:48:29;101301.84;;;5.02;68.38
76605;BME280;73179;50.978;16.998;2024-01-27T11:51:06;101165.72;;;4.23;67.80
76605;BME280;73179;50.978;16.998;2024-01-27T11:53:36;101278.34;;;4.97;69.20
76605;BME280;73179;50.978;16.998;2024-01-27T11:56:04;101241.72;;;4.60;67.70
76605;BME280;73179;50.978;16.998;2024-01-27T11:58:31;101209.97;;;4.32;68.51
76605;BME280;73179;50.978;16.998;2024-01-27T12:00:58;101146.00;;;3.86;67.73
76605;BME280;73179;50.978;16.998;2024-01-27T12:03:27;101178.44;;;4.03;68.78
76605;BME280;73179;50.978;16.998;2024-01-27T12:05:55;101324.53;;;4.99;70.25
76605;BME280;73179;50.978;16.998;2024-01-27T12:08:21;101381.69;;;5.31;69.27
76605;BME280;73179;50.978;16.998;2024-01-27T12:10:47;101137.47;;;3.96;69.12
76605;BME280;73179;50.978;16.998;2024-01-27T12:13:14;101186.00;;;4.12;69.56
76605;BME280;73179;50.978;16.998;2024-01-27T12:15:46;101361.72;;;5.45;68.03
76605;BME280;73179;50.978;16.998;2024-01-27T12:18:13;100988.09;;;3.17;67.96
76605;BME280;73179;50.978;16.998;2024-01-27T12:20:46;101051.91;;;3.51;68.83
76605;BME280;73179;50.978;16.998;2024-01-27T12:23:14;101230.47;;;4.51;68.44
76605;BME280;73179;50.978;16.998;2024-01-27T12:25:52;101042.69;;;3.41;69.23
76605;BME280;73179;50.978;16.998;2024-01-27T12:28:18;101220.66;;;4.63;68.54
76605;BME280;73179;50.978;16.998;2024-01-27T12:30:46;101125.13;;;3.95;67.88
76605;BME280;73179;50.978;16.998;2024-01-27T12:33:13;101288.78;;;4.80;68.14
76605;BME280;73179;50.978;16.998;2024-01-27T12:35:43;101371.03;;;5.43;68.68
76605;BME280;73179;50.978;16.998;2024-01-27T12:38:12;101410.25;;;5.68;67.60
76605;BME280;73179;50.978;16.998;2024-01-27T12:40:41;101320.22;;;5.23;67.15
76605;BME280;73179;50.978;16.998;2024-01-27T12:43:07;101157.38;;;4.06;67.52
76605;BME280;73179;50.978;16.998;2024-01-27T12:45:34;101259.47;;;4.86;67.19
76605;BME280;73179;50.978;16.998;2024-01-27T12:48:01;101056.25;;;3.77;67.19
76605;BME280;73179;50.978;16.998;2024-01-27T12:50:38;101107.91;;;4.09;68.18